createdAt,value
2022-11-19T00:02:10.718Z,6.47
2022-11-19T00:04:37.207Z,7.90
2022-11-19T00:07:03.947Z,7.60
2022-11-19T00:09:30.348Z,6.60
2022-11-19T00:11:56.741Z,6.88
2022-11-19T00:14:23.602Z,6.88
2022-11-19T00:16:50.016Z,5.60
2022-11-19T00:19:16.762Z,6.10
2022-11-19T00:21:43.452Z,5.53
2022-11-19T00:24:09.869Z,5.10
2022-11-19T00:26:36.279Z,4.57
2022-11-19T00:29:02.820Z,5.03
2022-11-19T00:31:29.228Z,5.53
2022-11-19T00:33:55.766Z,4.90
2022-11-19T00:36:22.727Z,5.22
2022-11-19T00:38:54.405Z,4.88
2022-11-19T00:41:20.896Z,4.45
2022-11-19T00:43:47.518Z,4.82
2022-11-19T00:46:15.346Z,4.47
2022-11-19T00:48:41.849Z,4.40
2022-11-19T00:51:08.437Z,5.03
2022-11-19T00:53:34.993Z,4.65
2022-11-19T00:56:02.226Z,4.20
2022-11-19T00:58:28.644Z,3.92
2022-11-19T01:00:55.091Z,4.63
2022-11-19T01:03:22.069Z,4.45
2022-11-19T01:05:48.480Z,4.43
2022-11-19T01:08:14.877Z,4.45
2022-11-19T01:10:41.283Z,4.65
2022-11-19T01:13:07.678Z,4.38
2022-11-19T01:15:34.090Z,4.47
2022-11-19T01:18:00.505Z,5.00
2022-11-19T01:20:27.013Z,5.13
2022-11-19T01:22:53.446Z,4.85
2022-11-19T01:25:19.857Z,3.85
2022-11-19T01:27:46.284Z,4.22
2022-11-19T01:30:12.713Z,4.72
2022-11-19T01:32:39.109Z,4.13
2022-11-19T01:35:06.073Z,4.68
2022-11-19T01:37:32.466Z,4.38
2022-11-19T01:39:59.222Z,4.30
2022-11-19T01:42:27.802Z,3.97
2022-11-19T01:45:01.048Z,4.85
2022-11-19T01:47:27.424Z,4.90
2022-11-19T01:49:53.835Z,4.50
2022-11-19T01:52:20.259Z,4.80
2022-11-19T01:54:47.189Z,3.95
2022-11-19T01:57:14.819Z,4.75
2022-11-19T01:59:41.254Z,4.00
2022-11-19T02:02:07.675Z,4.13
2022-11-19T02:04:34.169Z,4.65
2022-11-19T02:07:00.642Z,4.55
2022-11-19T02:09:27.066Z,4.55
2022-11-19T02:12:04.327Z,4.30
2022-11-19T02:14:55.083Z,5.03
2022-11-19T02:17:42.768Z,5.00
2022-11-19T02:20:36.769Z,4.80
2022-11-19T02:23:21.005Z,5.38
2022-11-19T02:26:05.749Z,4.88
2022-11-19T02:28:40.161Z,4.85
2022-11-19T02:31:18.554Z,5.35
2022-11-19T02:34:09.846Z,5.57
2022-11-19T02:36:45.413Z,4.78
2022-11-19T02:39:22.039Z,4.85
2022-11-19T02:41:53.197Z,4.50
2022-11-19T02:44:28.870Z,4.13
2022-11-19T02:46:55.257Z,4.28
2022-11-19T02:49:23.427Z,4.57
2022-11-19T02:51:49.821Z,3.95
2022-11-19T02:54:17.273Z,4.15
2022-11-19T02:56:50.853Z,4.60
2022-11-19T02:59:21.359Z,4.30
2022-11-19T03:01:47.844Z,3.53
2022-11-19T03:04:14.318Z,4.18
2022-11-19T03:06:40.749Z,4.10
2022-11-19T03:09:07.138Z,4.20
2022-11-19T03:11:33.537Z,3.40
2022-11-19T03:14:21.574Z,3.80
2022-11-19T03:17:28.635Z,4.30
2022-11-19T03:20:04.780Z,4.00
2022-11-19T03:23:02.153Z,3.70
2022-11-19T03:25:44.757Z,3.50
2022-11-19T03:28:16.202Z,3.70
2022-11-19T03:30:42.756Z,3.72
2022-11-19T03:33:11.910Z,3.72
2022-11-19T03:35:59.832Z,3.88
2022-11-19T03:38:30.461Z,5.07
2022-11-19T03:40:57.025Z,4.97
2022-11-19T03:43:27.082Z,4.95
2022-11-19T03:48:20.935Z,4.38
2022-11-19T03:50:51.726Z,7.43
2022-11-19T03:53:18.321Z,6.22
2022-11-19T03:56:11.286Z,6.00
2022-11-19T03:58:42.362Z,5.70
2022-11-19T04:01:09.055Z,5.68
2022-11-19T04:03:35.580Z,5.55
2022-11-19T04:06:02.764Z,6.55
2022-11-19T04:08:29.189Z,6.03
2022-11-19T04:10:55.589Z,5.47
2022-11-19T04:13:22.023Z,5.15
2022-11-19T04:15:48.416Z,5.85
2022-11-19T04:18:14.893Z,5.97
2022-11-19T04:20:42.618Z,7.07
2022-11-19T04:23:09.087Z,6.68
2022-11-19T04:25:35.499Z,5.85
2022-11-19T04:28:01.885Z,5.82
2022-11-19T04:30:28.311Z,5.55
2022-11-19T04:32:54.697Z,5.28
2022-11-19T04:35:21.103Z,5.88
2022-11-19T04:37:48.433Z,5.82
2022-11-19T04:40:14.970Z,5.15
2022-11-19T04:42:41.400Z,5.90
2022-11-19T04:45:08.649Z,6.03
2022-11-19T04:47:35.117Z,5.35
2022-11-19T04:50:01.586Z,5.65
2022-11-19T04:52:27.990Z,5.82
2022-11-19T04:54:54.442Z,5.68
2022-11-19T04:57:20.869Z,6.60
2022-11-19T04:59:47.292Z,6.15
2022-11-19T05:02:13.689Z,5.88
2022-11-19T05:04:40.114Z,4.75
2022-11-19T05:07:06.531Z,4.53
2022-11-19T05:09:32.976Z,4.90
2022-11-19T05:11:59.408Z,4.88
2022-11-19T05:14:30.095Z,4.65
2022-11-19T05:16:57.041Z,4.32
2022-11-19T05:19:23.455Z,5.18
2022-11-19T05:21:49.855Z,5.13
2022-11-19T05:24:16.278Z,6.38
2022-11-19T05:26:42.683Z,4.63
2022-11-19T05:29:09.129Z,4.68
2022-11-19T05:31:35.560Z,4.70
2022-11-19T05:34:01.949Z,3.38
2022-11-19T05:36:28.361Z,4.07
2022-11-19T05:38:54.790Z,3.55
2022-11-19T05:41:21.205Z,3.33
2022-11-19T05:43:47.598Z,3.28
2022-11-19T05:46:14.016Z,3.42
2022-11-19T05:48:40.421Z,3.42
2022-11-19T05:51:06.829Z,3.63
2022-11-19T05:53:33.220Z,3.83
2022-11-19T05:55:59.638Z,3.67
2022-11-19T05:58:26.029Z,3.72
2022-11-19T06:00:55.863Z,3.50
2022-11-19T06:03:22.325Z,3.80
2022-11-19T06:05:48.726Z,4.35
2022-11-19T06:08:15.126Z,4.00
2022-11-19T06:10:41.533Z,3.97
2022-11-19T06:13:07.944Z,4.45
2022-11-19T06:15:34.358Z,4.43
2022-11-19T06:18:00.769Z,4.43
2022-11-19T06:20:27.204Z,3.97
2022-11-19T06:22:53.612Z,4.47
2022-11-19T06:25:20.126Z,4.57
2022-11-19T06:27:46.556Z,4.03
2022-11-19T06:30:13.576Z,3.88
2022-11-19T06:32:40.072Z,4.38
2022-11-19T06:35:06.697Z,4.20
2022-11-19T06:37:33.103Z,4.38
2022-11-19T06:39:59.507Z,3.75
2022-11-19T06:42:26.246Z,4.47
2022-11-19T06:44:52.626Z,4.18
2022-11-19T06:47:19.032Z,3.63
2022-11-19T06:49:45.435Z,4.93
2022-11-19T06:52:11.851Z,4.40
2022-11-19T06:54:42.860Z,3.92
2022-11-19T06:57:09.629Z,4.53
2022-11-19T06:59:36.057Z,4.18
2022-11-19T07:02:02.559Z,4.57
2022-11-19T07:04:28.986Z,4.22
2022-11-19T07:06:55.416Z,3.75
2022-11-19T07:09:22.056Z,3.95
2022-11-19T07:11:48.602Z,3.45
2022-11-19T07:14:15.003Z,3.30
2022-11-19T07:16:41.402Z,3.47
2022-11-19T07:19:08.043Z,3.10
2022-11-19T07:21:34.606Z,3.92
2022-11-19T07:24:03.828Z,3.80
2022-11-19T07:26:31.302Z,3.08
2022-11-19T07:29:05.263Z,3.20
2022-11-19T07:31:32.236Z,3.38
2022-11-19T07:33:58.689Z,3.83
2022-11-19T07:36:25.169Z,3.80
2022-11-19T07:38:51.614Z,3.63
2022-11-19T07:41:19.129Z,3.97
2022-11-19T07:43:45.556Z,3.05
2022-11-19T07:46:11.942Z,3.03
2022-11-19T07:48:38.353Z,3.53
2022-11-19T07:51:04.764Z,3.05
2022-11-19T07:53:31.182Z,3.63
2022-11-19T07:56:00.325Z,2.67
2022-11-19T07:58:26.743Z,3.05
2022-11-19T08:00:53.229Z,3.33
2022-11-19T08:03:20.825Z,4.13
2022-11-19T08:05:47.250Z,4.00
2022-11-19T08:08:13.673Z,3.13
2022-11-19T08:10:40.062Z,3.72
2022-11-19T08:13:06.472Z,3.67
2022-11-19T08:15:33.446Z,3.40
2022-11-19T08:17:59.887Z,3.42
2022-11-19T08:20:26.307Z,3.00
2022-11-19T08:22:52.697Z,3.05
2022-11-19T08:25:19.110Z,2.92
2022-11-19T08:27:45.529Z,2.95
2022-11-19T08:30:12.525Z,4.10
2022-11-19T08:32:38.922Z,5.15
2022-11-19T08:35:05.854Z,5.13
2022-11-19T08:37:32.246Z,4.50
2022-11-19T08:39:58.649Z,4.55
2022-11-19T08:42:25.038Z,3.95
2022-11-19T08:44:51.439Z,3.80
2022-11-19T08:47:17.834Z,4.15
2022-11-19T08:49:44.258Z,4.18
2022-11-19T08:52:10.687Z,3.60
2022-11-19T08:54:37.109Z,3.38
2022-11-19T08:57:03.574Z,3.58
2022-11-19T08:59:29.986Z,3.67
2022-11-19T09:01:56.405Z,3.05
2022-11-19T09:04:23.050Z,3.30
2022-11-19T09:06:49.512Z,3.33
2022-11-19T09:09:15.905Z,3.33
2022-11-19T09:11:43.094Z,2.97
2022-11-19T09:14:09.736Z,2.42
2022-11-19T09:16:36.166Z,2.60
2022-11-19T09:19:02.571Z,3.08
2022-11-19T09:21:29.053Z,3.33
2022-11-19T09:23:55.478Z,3.47
2022-11-19T09:26:21.898Z,3.20
2022-11-19T09:28:48.297Z,3.60
2022-11-19T09:31:16.302Z,3.38
2022-11-19T09:33:45.189Z,3.80
2022-11-19T09:36:11.985Z,3.92
2022-11-19T09:38:38.380Z,5.32
2022-11-19T09:41:46.786Z,3.75
2022-11-19T09:44:31.008Z,3.78
2022-11-19T09:47:26.588Z,4.93
2022-11-19T09:50:18.940Z,5.65
2022-11-19T09:52:56.381Z,5.30
2022-11-19T09:55:31.214Z,4.85
2022-11-19T09:57:57.776Z,4.57
2022-11-19T10:00:26.572Z,3.55
2022-11-19T10:02:53.078Z,5.10
2022-11-19T10:06:04.380Z,3.97
2022-11-19T10:08:45.783Z,3.90
2022-11-19T10:11:21.146Z,3.85
2022-11-19T10:14:28.898Z,3.70
2022-11-19T10:17:05.050Z,3.85
2022-11-19T10:19:46.762Z,3.80
2022-11-19T10:22:21.375Z,4.30
2022-11-19T10:24:51.612Z,4.30
2022-11-19T10:27:27.012Z,4.05
2022-11-19T10:29:54.910Z,5.50
2022-11-19T10:32:27.120Z,4.65
2022-11-19T10:34:54.997Z,4.60
2022-11-19T10:37:21.501Z,3.63
2022-11-19T10:39:53.830Z,4.45
2022-11-19T10:42:53.740Z,4.60
2022-11-19T10:45:27.257Z,4.32
2022-11-19T10:48:22.438Z,4.88
2022-11-19T10:50:49.331Z,3.58
2022-11-19T10:53:17.120Z,2.70
2022-11-19T10:55:51.385Z,3.40
2022-11-19T10:58:39.094Z,2.30
2022-11-19T11:01:20.845Z,2.47
2022-11-19T11:04:23.481Z,2.83
2022-11-19T11:06:52.780Z,2.95
2022-11-19T11:09:38.180Z,3.10
2022-11-19T11:12:17.535Z,2.00
2022-11-19T11:14:44.092Z,2.30
2022-11-19T11:17:20.735Z,2.22
2022-11-19T11:20:00.222Z,1.90
2022-11-19T11:22:27.125Z,1.90
2022-11-19T11:24:53.654Z,2.72
2022-11-19T11:27:33.832Z,2.83
2022-11-19T11:30:15.088Z,3.50
2022-11-19T11:32:41.640Z,4.03
2022-11-19T11:35:32.509Z,2.65
2022-11-19T11:38:00.180Z,2.22
2022-11-19T11:40:26.573Z,1.75
2022-11-19T11:42:52.962Z,1.60
2022-11-19T11:45:31.138Z,2.22
2022-11-19T11:47:57.585Z,3.92
2022-11-19T11:50:25.344Z,1.80
2022-11-19T11:52:55.067Z,1.38
2022-11-19T11:55:24.434Z,1.70
2022-11-19T11:58:01.435Z,1.52
2022-11-19T12:00:33.750Z,1.65
2022-11-19T12:03:13.494Z,1.20
2022-11-19T12:06:01.713Z,1.42
2022-11-19T12:08:46.102Z,1.65
2022-11-19T12:11:33.837Z,1.65
2022-11-19T12:16:47.672Z,1.30
2022-11-19T12:19:42.213Z,1.30
2022-11-19T12:22:33.689Z,1.30
2022-11-19T12:25:31.130Z,1.15
2022-11-19T12:28:09.495Z,1.50
2022-11-19T12:30:48.124Z,1.20
2022-11-19T12:33:24.050Z,1.23
2022-11-19T12:38:44.353Z,1.45
2022-11-19T12:41:31.710Z,1.30
2022-11-19T12:44:01.925Z,1.80
2022-11-19T12:46:50.419Z,1.30
2022-11-19T12:49:38.318Z,1.83
2022-11-19T12:52:12.570Z,1.50
2022-11-19T12:54:54.330Z,1.90
2022-11-19T13:00:13.408Z,1.35
2022-11-19T13:03:12.484Z,1.20
2022-11-19T13:05:50.220Z,1.08
2022-11-19T13:08:18.606Z,1.08
2022-11-19T13:10:52.039Z,1.17
2022-11-19T13:13:21.254Z,1.08
2022-11-19T13:15:57.995Z,1.13
2022-11-19T13:18:24.444Z,1.00
2022-11-19T13:20:53.836Z,1.20
2022-11-19T13:23:26.206Z,1.17
2022-11-19T13:26:01.354Z,1.35
2022-11-19T13:28:35.903Z,1.33
2022-11-19T13:31:07.087Z,1.60
2022-11-19T13:34:01.007Z,1.77
2022-11-19T13:36:40.134Z,1.20
2022-11-19T13:39:13.560Z,1.00
2022-11-19T13:41:46.403Z,0.98
2022-11-19T13:44:12.852Z,1.13
2022-11-19T13:46:49.522Z,1.00
2022-11-19T13:49:31.122Z,1.30
2022-11-19T13:52:07.090Z,1.30
2022-11-19T13:54:35.127Z,1.77
2022-11-19T13:57:01.542Z,1.48
2022-11-19T13:59:43.325Z,2.03
2022-11-19T14:04:51.183Z,1.92
2022-11-19T14:07:30.880Z,1.63
2022-11-19T14:10:03.766Z,1.42
2022-11-19T14:12:30.061Z,1.58
2022-11-19T14:15:23.473Z,1.40
2022-11-19T14:18:22.621Z,2.00
2022-11-19T14:20:49.048Z,1.38
2022-11-19T14:23:47.011Z,1.75
2022-11-19T14:26:40.388Z,1.42
2022-11-19T14:29:26.978Z,1.35
2022-11-19T14:32:02.357Z,1.63
2022-11-19T14:34:32.822Z,2.88
2022-11-19T14:37:03.859Z,3.00
2022-11-19T14:39:31.306Z,3.08
2022-11-19T14:42:17.012Z,2.47
2022-11-19T14:44:44.444Z,1.95
2022-11-19T14:47:24.484Z,2.05
2022-11-19T14:49:54.190Z,2.55
2022-11-19T14:52:44.582Z,3.63
2022-11-19T14:55:13.918Z,3.22
2022-11-19T14:57:41.556Z,4.90
2022-11-19T15:00:32.278Z,4.28
2022-11-19T15:02:58.737Z,3.47
2022-11-19T15:05:51.480Z,3.30
2022-11-19T15:08:17.799Z,3.78
2022-11-19T15:11:06.286Z,2.75
2022-11-19T15:13:42.359Z,2.05
2022-11-19T15:16:10.895Z,2.10
2022-11-19T15:18:40.393Z,2.67
2022-11-19T15:21:18.946Z,2.50
2022-11-19T15:23:51.188Z,3.22
2022-11-19T15:26:42.162Z,2.80
2022-11-19T15:29:17.376Z,2.40
2022-11-19T15:32:00.216Z,3.28
2022-11-19T15:35:21.259Z,3.83
2022-11-19T15:38:19.865Z,2.47
2022-11-19T15:40:46.509Z,2.45
2022-11-19T15:43:21.855Z,2.72
2022-11-19T15:45:55.045Z,2.80
2022-11-19T15:48:48.814Z,2.80
2022-11-19T15:51:15.784Z,2.60
2022-11-19T15:54:01.610Z,2.40
2022-11-19T15:56:29.613Z,2.42
2022-11-19T15:58:56.005Z,2.65
2022-11-19T16:01:22.528Z,2.10
2022-11-19T16:03:50.699Z,2.63
2022-11-19T16:06:20.870Z,2.42
2022-11-19T16:08:47.558Z,2.22
2022-11-19T16:11:20.152Z,2.28
2022-11-19T16:13:53.660Z,2.40
2022-11-19T16:16:26.456Z,2.17
2022-11-19T16:18:54.071Z,2.30
2022-11-19T16:21:29.057Z,3.03
2022-11-19T16:23:55.482Z,2.50
2022-11-19T16:26:21.890Z,2.60
2022-11-19T16:28:48.338Z,2.85
2022-11-19T16:31:14.730Z,2.95
2022-11-19T16:33:41.145Z,2.70
2022-11-19T16:36:25.600Z,2.53
2022-11-19T16:38:52.273Z,3.03
2022-11-19T16:41:20.064Z,2.45
2022-11-19T16:43:46.524Z,3.40
2022-11-19T16:46:18.261Z,2.50
2022-11-19T16:48:50.812Z,2.38
2022-11-19T16:51:36.270Z,2.75
2022-11-19T16:54:03.629Z,3.03
2022-11-19T16:56:35.437Z,2.10
2022-11-19T16:59:02.631Z,2.88
2022-11-19T17:01:29.947Z,3.28
2022-11-19T17:04:06.339Z,3.35
2022-11-19T17:06:33.470Z,3.20
2022-11-19T17:09:00.507Z,2.60
2022-11-19T17:11:47.061Z,3.25
2022-11-19T17:14:16.331Z,3.67
2022-11-19T17:16:49.853Z,3.47
2022-11-19T17:19:35.340Z,3.30
2022-11-19T17:22:15.949Z,3.83
2022-11-19T17:24:43.597Z,4.40
2022-11-19T17:27:25.413Z,4.38
2022-11-19T17:30:01.861Z,4.20
2022-11-19T17:32:39.272Z,4.22
2022-11-19T17:35:23.053Z,4.10
2022-11-19T17:37:49.835Z,3.58
2022-11-19T17:40:16.286Z,3.60
2022-11-19T17:42:42.716Z,3.42
2022-11-19T17:45:11.059Z,4.57
2022-11-19T17:47:37.695Z,5.28
2022-11-19T17:50:04.377Z,5.20
2022-11-19T17:52:31.085Z,4.32
2022-11-19T17:55:10.322Z,5.68
2022-11-19T17:57:42.237Z,4.32
2022-11-19T18:00:09.832Z,3.53
2022-11-19T18:02:36.213Z,3.88
2022-11-19T18:05:02.729Z,3.20
2022-11-19T18:07:29.190Z,4.57
2022-11-19T18:09:55.605Z,3.55
2022-11-19T18:12:22.029Z,3.60
2022-11-19T18:14:48.432Z,4.40
2022-11-19T18:17:15.392Z,4.50
2022-11-19T18:19:41.774Z,4.47
2022-11-19T18:22:13.429Z,4.15
2022-11-19T18:24:39.854Z,3.88
2022-11-19T18:27:06.580Z,5.05
2022-11-19T18:29:34.054Z,5.15
2022-11-19T18:32:00.518Z,4.57
2022-11-19T18:34:28.772Z,4.68
2022-11-19T18:36:55.223Z,5.03
2022-11-19T18:39:24.355Z,5.10
2022-11-19T18:41:50.969Z,5.03
2022-11-19T18:44:18.853Z,4.40
2022-11-19T18:46:45.331Z,6.22
2022-11-19T18:49:13.001Z,6.28
2022-11-19T18:51:39.436Z,7.35
2022-11-19T18:54:07.466Z,8.70
2022-11-19T18:56:34.079Z,6.50
2022-11-19T18:59:04.678Z,5.43
2022-11-19T19:01:31.899Z,5.63
2022-11-19T19:03:58.337Z,5.10
2022-11-19T19:06:28.841Z,5.50
2022-11-19T19:08:55.366Z,5.07
2022-11-19T19:11:21.874Z,5.60
2022-11-19T19:13:48.778Z,4.82
2022-11-19T19:16:15.167Z,4.45
2022-11-19T19:18:44.462Z,4.60
2022-11-19T19:21:17.633Z,4.53
2022-11-19T19:23:44.936Z,3.58
2022-11-19T19:26:11.706Z,4.53
2022-11-19T19:28:38.258Z,3.22
2022-11-19T19:31:04.738Z,3.15
2022-11-19T19:33:31.308Z,4.43
2022-11-19T19:35:58.740Z,4.18
2022-11-19T19:38:28.073Z,4.30
2022-11-19T19:40:54.522Z,3.90
2022-11-19T19:43:20.946Z,3.92
2022-11-19T19:45:47.342Z,3.72
2022-11-19T19:48:17.190Z,4.43
2022-11-19T19:50:50.399Z,4.47
2022-11-19T19:53:16.868Z,4.75
2022-11-19T19:55:43.279Z,4.55
2022-11-19T19:58:09.682Z,4.00
2022-11-19T20:00:38.165Z,3.90
2022-11-19T20:03:04.624Z,3.60
2022-11-19T20:05:31.106Z,3.88
2022-11-19T20:07:57.518Z,4.35
2022-11-19T20:10:24.021Z,4.22
2022-11-19T20:12:50.442Z,4.00
2022-11-19T20:15:19.905Z,4.57
2022-11-19T20:17:46.309Z,3.33
2022-11-19T20:20:12.761Z,3.15
2022-11-19T20:22:39.304Z,3.50
2022-11-19T20:25:06.263Z,3.28
2022-11-19T20:27:32.665Z,2.88
2022-11-19T20:30:03.469Z,3.53
2022-11-19T20:32:31.165Z,3.03
2022-11-19T20:34:58.841Z,3.38
2022-11-19T20:37:25.731Z,3.20
2022-11-19T20:39:52.155Z,3.22
2022-11-19T20:42:18.565Z,3.28
2022-11-19T20:44:45.202Z,3.13
2022-11-19T20:47:11.717Z,2.70
2022-11-19T20:49:38.193Z,2.85
2022-11-19T20:52:05.182Z,2.75
2022-11-19T20:54:31.910Z,2.72
2022-11-19T20:56:58.412Z,2.80
2022-11-19T20:59:25.101Z,2.78
2022-11-19T21:01:52.224Z,2.60
2022-11-19T21:04:19.361Z,2.35
2022-11-19T21:06:45.939Z,2.95
2022-11-19T21:09:12.413Z,2.55
2022-11-19T21:11:38.902Z,2.92
2022-11-19T21:14:05.302Z,3.58
2022-11-19T21:16:31.793Z,2.53
2022-11-19T21:18:58.200Z,2.85
2022-11-19T21:21:24.731Z,3.10
2022-11-19T21:23:51.491Z,2.80
2022-11-19T21:26:21.285Z,2.42
2022-11-19T21:28:49.162Z,3.22
2022-11-19T21:31:16.047Z,3.03
2022-11-19T21:33:47.311Z,2.45
2022-11-19T21:36:15.049Z,3.03
2022-11-19T21:38:41.599Z,3.10
2022-11-19T21:41:08.078Z,3.38
2022-11-19T21:43:34.660Z,2.78
2022-11-19T21:46:01.124Z,2.90
2022-11-19T21:48:28.880Z,3.20
2022-11-19T21:50:55.352Z,2.25
2022-11-19T21:53:21.876Z,3.40
2022-11-19T21:55:49.010Z,2.63
2022-11-19T21:58:15.697Z,3.13
2022-11-19T22:00:42.236Z,3.08
2022-11-19T22:03:09.113Z,3.20
2022-11-19T22:05:36.857Z,3.55
2022-11-19T22:08:04.888Z,3.15
2022-11-19T22:10:31.284Z,3.22
2022-11-19T22:12:58.467Z,3.05
2022-11-19T22:15:26.631Z,2.40
2022-11-19T22:17:53.209Z,2.83
2022-11-19T22:20:19.726Z,2.50
2022-11-19T22:22:46.184Z,3.22
2022-11-19T22:25:13.097Z,3.08
2022-11-19T22:27:39.523Z,2.65
2022-11-19T22:30:06.655Z,3.28
2022-11-19T22:32:33.104Z,3.20
2022-11-19T22:34:59.491Z,3.13
2022-11-19T22:37:26.034Z,2.65
2022-11-19T22:39:52.455Z,3.22
2022-11-19T22:42:18.843Z,3.25
2022-11-19T22:44:45.315Z,2.60
2022-11-19T22:47:11.837Z,2.45
2022-11-19T22:49:38.277Z,2.50
2022-11-19T22:52:04.786Z,2.50
2022-11-19T22:54:31.194Z,2.22
2022-11-19T22:56:57.578Z,2.83
2022-11-19T22:59:24.059Z,1.88
2022-11-19T23:01:50.482Z,1.90
2022-11-19T23:04:16.958Z,2.45
2022-11-19T23:06:43.375Z,2.33
2022-11-19T23:09:09.820Z,2.33
2022-11-19T23:11:36.205Z,2.40
2022-11-19T23:14:02.733Z,2.13
2022-11-19T23:16:29.736Z,1.90
2022-11-19T23:18:56.156Z,1.65
2022-11-19T23:21:24.112Z,2.50
2022-11-19T23:23:50.519Z,1.90
2022-11-19T23:26:18.855Z,2.22
2022-11-19T23:28:45.398Z,1.88
2022-11-19T23:31:25.544Z,2.10
2022-11-19T23:33:57.448Z,2.28
2022-11-19T23:36:29.419Z,2.20
2022-11-19T23:38:55.845Z,2.00
2022-11-19T23:41:22.466Z,2.03
2022-11-19T23:43:48.907Z,1.88
2022-11-19T23:46:17.589Z,1.98
2022-11-19T23:48:44.717Z,2.22
2022-11-19T23:51:12.961Z,1.80
2022-11-19T23:53:39.481Z,1.80
2022-11-19T23:56:06.127Z,1.65
2022-11-19T23:58:32.709Z,2.40
